FMMT

Toamasina Airport

Airport
ICAO code
FMMT
IATA Code
TMM
Summary
ICAO Region
AFI
ICAO Territory
Location

Toamasina, Atsinanana Region

Serving
Toamasina
Elevation
22 ft
Coordinates
18° 6' 34" S , 49° 23' 33" E
KCC
Metar
FMMT 232100Z 18008KT 140V230 9999 VCSH SCT017 BKN033 23/20 Q1020

Toamasina Airport is an airport in Toamasina, Atsinanana Region, Madagascar.

Climatology

Tropical rainforest climate (Köppen climate classification Af)

Runways

Designator Length Width Surface Rops
1/19 2200 40 ASP No/No

Airport map

Aerial View

SKYbrary Partners:

Safety knowledge contributed by: